createdAt,value
2019-05-01T00:00:40.725Z,12.46
2019-05-01T00:01:40.752Z,12.42
2019-05-01T00:02:55.429Z,12.46
2019-05-01T00:03:40.783Z,12.46
2019-05-01T00:04:40.811Z,12.47
2019-05-01T00:05:40.823Z,12.39
2019-05-01T00:06:40.602Z,12.41
2019-05-01T00:07:40.864Z,12.45
2019-05-01T00:09:40.902Z,12.41
2019-05-01T00:10:40.920Z,12.47
2019-05-01T00:11:40.944Z,12.46
2019-05-01T00:13:40.983Z,12.42
2019-05-01T00:14:41.009Z,12.52
2019-05-01T00:15:41.044Z,12.57
2019-05-01T00:16:41.045Z,12.6
2019-05-01T00:17:41.068Z,12.53
2019-05-01T00:18:55.746Z,12.54
2019-05-01T00:19:41.103Z,12.54
2019-05-01T00:20:41.122Z,12.54
2019-05-01T00:21:41.141Z,12.54
2019-05-01T00:22:55.580Z,12.53
2019-05-01T00:23:41.187Z,12.64
2019-05-01T00:24:41.208Z,12.47
2019-05-01T00:25:41.229Z,12.49
2019-05-01T00:26:41.343Z,12.5
2019-05-01T00:27:41.268Z,12.42
2019-05-01T00:28:41.292Z,12.42
2019-05-01T00:29:41.307Z,12.42
2019-05-01T00:30:55.989Z,12.39
2019-05-01T00:31:41.347Z,12.35
2019-05-01T00:32:41.368Z,12.46
2019-05-01T00:33:41.390Z,12.45
2019-05-01T00:34:56.069Z,12.47
2019-05-01T00:35:41.428Z,12.45
2019-05-01T00:36:41.444Z,12.46
2019-05-01T00:37:41.482Z,12.46
2019-05-01T00:38:41.490Z,12.41
2019-05-01T00:39:41.510Z,12.47
2019-05-01T00:40:41.527Z,12.41
2019-05-01T00:41:41.544Z,12.49
2019-05-01T00:42:41.569Z,12.59
2019-05-01T00:43:41.586Z,12.52
2019-05-01T00:44:41.362Z,12.47
2019-05-01T00:45:56.291Z,12.49
2019-05-01T00:46:41.748Z,12.46
2019-05-01T00:47:41.710Z,12.39
2019-05-01T00:48:41.685Z,12.49
2019-05-01T00:49:56.371Z,12.41
2019-05-01T00:50:41.741Z,12.42
2019-05-01T00:51:41.747Z,12.45
2019-05-01T00:52:41.770Z,12.46
2019-05-01T00:53:41.787Z,12.45
2019-05-01T00:54:41.805Z,12.37
2019-05-01T00:55:41.832Z,12.45
2019-05-01T00:56:41.847Z,12.42
2019-05-01T00:57:41.868Z,12.46
2019-05-01T00:58:41.893Z,12.46
2019-05-01T00:59:41.910Z,12.46
2019-05-01T01:00:48.158Z,12.47
2019-05-01T01:01:41.955Z,12.47
2019-05-01T01:02:41.970Z,12.46
2019-05-01T01:03:41.992Z,12.49
2019-05-01T01:04:42.013Z,12.45
2019-05-01T01:05:42.029Z,12.41
2019-05-01T01:06:42.048Z,12.47
2019-05-01T01:07:42.067Z,12.52
2019-05-01T01:08:42.089Z,12.5
2019-05-01T01:09:42.112Z,12.46
2019-05-01T01:10:42.172Z,12.5
2019-05-01T01:11:42.150Z,12.6
2019-05-01T01:12:42.173Z,12.46
2019-05-01T01:13:42.198Z,12.45
2019-05-01T01:14:42.208Z,12.37
2019-05-01T01:15:42.236Z,12.35
2019-05-01T01:16:42.021Z,12.46
2019-05-01T01:17:42.274Z,12.5
2019-05-01T01:18:56.960Z,12.5
2019-05-01T01:19:42.313Z,12.54
2019-05-01T01:20:42.433Z,12.49
2019-05-01T01:21:57.015Z,12.52
2019-05-01T01:22:42.373Z,12.45
2019-05-01T01:23:42.394Z,12.42
2019-05-01T01:24:42.409Z,12.47
2019-05-01T01:25:42.432Z,12.42
2019-05-01T01:26:42.454Z,12.49
2019-05-01T01:27:42.484Z,12.45
2019-05-01T01:28:42.494Z,12.49
2019-05-01T01:29:42.511Z,12.47
2019-05-01T01:30:57.201Z,12.52
2019-05-01T01:31:42.554Z,12.49
2019-05-01T01:32:42.573Z,12.53
2019-05-01T01:33:42.594Z,12.5
2019-05-01T01:34:42.617Z,12.47
2019-05-01T01:35:42.633Z,12.57
2019-05-01T01:36:42.658Z,12.59
2019-05-01T01:37:57.088Z,12.52
2019-05-01T01:38:42.692Z,12.57
2019-05-01T01:39:42.716Z,12.5
2019-05-01T01:40:42.733Z,12.65
2019-05-01T01:41:42.753Z,12.6
2019-05-01T01:42:42.773Z,12.67
2019-05-01T01:43:42.793Z,12.75
2019-05-01T01:44:42.820Z,12.83
2019-05-01T01:45:42.833Z,12.71
2019-05-01T01:46:42.855Z,12.78
2019-05-01T01:47:42.872Z,12.78
2019-05-01T01:48:42.893Z,12.79
2019-05-01T01:49:42.918Z,12.82
2019-05-01T01:50:57.598Z,12.71
2019-05-01T01:51:42.953Z,12.78
2019-05-01T01:52:42.973Z,12.71
2019-05-01T01:53:57.662Z,12.68
2019-05-01T01:54:43.016Z,12.71
2019-05-01T01:55:43.036Z,12.53
2019-05-01T01:56:43.057Z,12.53
2019-05-01T01:57:43.073Z,12.49
2019-05-01T01:58:43.094Z,12.46
2019-05-01T01:59:43.113Z,12.42
2019-05-01T02:00:43.162Z,12.34
2019-05-01T02:02:43.176Z,12.37
2019-05-01T02:03:43.195Z,12.35
2019-05-01T02:04:43.215Z,12.35
2019-05-01T02:05:43.254Z,12.27
2019-05-01T02:06:43.258Z,12.24
2019-05-01T02:07:43.035Z,12.27
2019-05-01T02:08:55.389Z,12.38
2019-05-01T02:09:57.982Z,12.42
2019-05-01T02:10:47.943Z,12.35
2019-05-01T02:11:43.354Z,12.38
2019-05-01T02:12:43.376Z,12.35
2019-05-01T02:13:43.394Z,12.39
2019-05-01T02:15:43.435Z,12.37
2019-05-01T02:16:43.453Z,12.34
2019-05-01T02:17:43.476Z,12.37
2019-05-01T02:18:43.495Z,12.47
2019-05-01T02:19:43.265Z,12.35
2019-05-01T02:20:43.533Z,12.34
2019-05-01T02:21:43.557Z,12.32
2019-05-01T02:22:43.591Z,12.29
2019-05-01T02:23:43.596Z,12.32
2019-05-01T02:24:58.279Z,12.41
2019-05-01T02:25:43.680Z,12.38
2019-05-01T02:26:43.661Z,12.45
2019-05-01T02:27:43.674Z,12.45
2019-05-01T02:28:43.700Z,12.42
2019-05-01T02:30:43.509Z,12.37
2019-05-01T02:31:43.753Z,12.35
2019-05-01T02:32:43.786Z,12.34
2019-05-01T02:33:43.802Z,12.38
2019-05-01T02:34:43.827Z,12.35
2019-05-01T02:35:43.850Z,12.39
2019-05-01T02:36:43.862Z,12.35
2019-05-01T02:37:43.896Z,12.37
2019-05-01T02:38:43.913Z,12.37
2019-05-01T02:39:43.935Z,12.34
2019-05-01T02:40:43.943Z,12.35
2019-05-01T02:41:46.449Z,12.37
2019-05-01T02:42:43.974Z,12.37
2019-05-01T02:43:43.758Z,12.42
2019-05-01T02:44:44.019Z,12.38
2019-05-01T02:45:44.037Z,12.32
2019-05-01T02:46:44.056Z,12.39
2019-05-01T02:47:44.090Z,12.39
2019-05-01T02:48:44.099Z,12.38
2019-05-01T02:49:43.870Z,12.35
2019-05-01T02:50:44.138Z,12.42
2019-05-01T02:51:44.167Z,12.39
2019-05-01T02:52:44.177Z,12.39
2019-05-01T02:53:44.200Z,12.41
2019-05-01T02:54:44.212Z,12.42
2019-05-01T02:55:44.245Z,12.39
2019-05-01T02:56:58.919Z,12.39
2019-05-01T02:58:44.336Z,12.45
2019-05-01T02:59:44.326Z,12.37
2019-05-01T03:00:44.342Z,12.32
2019-05-01T03:01:52.160Z,12.39
2019-05-01T03:02:44.417Z,12.34
2019-05-01T03:03:44.412Z,12.37
2019-05-01T03:04:44.419Z,12.39
2019-05-01T03:05:44.437Z,12.35
2019-05-01T03:06:44.495Z,12.34
2019-05-01T03:07:44.475Z,12.41
2019-05-01T03:09:44.521Z,12.29
2019-05-01T03:10:44.534Z,12.24
2019-05-01T03:11:44.635Z,12.29
2019-05-01T03:12:59.271Z,12.35
2019-05-01T03:14:44.629Z,12.32
2019-05-01T03:15:44.649Z,12.37
2019-05-01T03:16:44.653Z,12.39
2019-05-01T03:17:44.683Z,12.35
2019-05-01T03:18:44.697Z,12.35
2019-05-01T03:19:44.734Z,12.32
2019-05-01T03:20:44.740Z,12.37
2019-05-01T03:21:44.757Z,12.31
2019-05-01T03:22:44.780Z,12.35
2019-05-01T03:23:44.805Z,12.37
2019-05-01T03:24:59.475Z,12.37
2019-05-01T03:25:44.833Z,12.34
2019-05-01T03:26:44.631Z,12.37
2019-05-01T03:27:44.918Z,12.39
2019-05-01T03:28:59.556Z,12.35
2019-05-01T03:29:44.916Z,12.35
2019-05-01T03:30:44.942Z,12.37
2019-05-01T03:32:45.023Z,12.39
2019-05-01T03:33:45.030Z,12.32
2019-05-01T03:35:45.139Z,12.38
2019-05-01T03:36:45.055Z,12.34
2019-05-01T03:37:45.104Z,12.37
2019-05-01T03:38:45.113Z,12.39
2019-05-01T03:39:45.115Z,12.32
2019-05-01T03:40:45.231Z,12.27
2019-05-01T03:41:45.253Z,12.23
2019-05-01T03:42:44.929Z,12.28
2019-05-01T03:43:44.959Z,12.27
2019-05-01T03:44:59.884Z,12.29
2019-05-01T03:45:45.232Z,12.31
2019-05-01T03:46:45.262Z,12.28
2019-05-01T03:47:45.272Z,12.27
2019-05-01T03:48:45.296Z,12.19
2019-05-01T03:49:45.351Z,12.2
2019-05-01T03:50:49.201Z,12.14
2019-05-01T03:51:45.367Z,12.21
2019-05-01T03:52:45.370Z,12.17
2019-05-01T03:53:45.459Z,12.17
2019-05-01T03:54:45.416Z,12.19
2019-05-01T03:55:45.431Z,12.27
2019-05-01T03:56:45.471Z,12.27
2019-05-01T03:58:00.132Z,12.28
2019-05-01T03:58:45.493Z,12.24
2019-05-01T04:00:00.173Z,12.23
2019-05-01T04:00:45.544Z,12.21
2019-05-01T04:01:45.551Z,12.32
2019-05-01T04:02:45.591Z,12.32
2019-05-01T04:03:45.586Z,12.35
2019-05-01T04:04:45.617Z,12.23
2019-05-01T04:05:45.641Z,12.27
2019-05-01T04:06:45.761Z,12.21
2019-05-01T04:07:45.691Z,12.2
2019-05-01T04:08:45.697Z,12.27
2019-05-01T04:09:45.719Z,12.28
2019-05-01T04:10:45.750Z,12.19
2019-05-01T04:11:45.753Z,12.16
2019-05-01T04:12:45.884Z,12.17
2019-05-01T04:13:45.787Z,12.16
2019-05-01T04:14:45.817Z,12.19
2019-05-01T04:16:45.858Z,12.16
2019-05-01T04:17:45.880Z,12.12
2019-05-01T04:19:00.566Z,12.1
2019-05-01T04:20:00.577Z,12.14
2019-05-01T04:20:45.931Z,12.19
2019-05-01T04:22:45.988Z,12.16
2019-05-01T04:24:00.652Z,12.05
2019-05-01T04:24:46.007Z,12.07
2019-05-01T04:25:46.025Z,12.01
2019-05-01T04:26:46.047Z,12.04
2019-05-01T04:27:46.065Z,12.04
2019-05-01T04:28:46.103Z,12.05
2019-05-01T04:29:46.104Z,11.98
2019-05-01T04:30:46.126Z,12.02
2019-05-01T04:32:00.815Z,12.05
2019-05-01T04:32:56.749Z,12.01
2019-05-01T04:33:46.245Z,12.02
2019-05-01T04:34:46.227Z,12.05
2019-05-01T04:35:46.230Z,12.07
2019-05-01T04:36:46.267Z,12.12
2019-05-01T04:37:46.282Z,11.96
2019-05-01T04:38:46.286Z,11.95
2019-05-01T04:39:46.306Z,11.88
2019-05-01T04:40:46.325Z,11.98
2019-05-01T04:41:46.346Z,11.94
2019-05-01T04:42:46.388Z,11.95
2019-05-01T04:43:46.383Z,11.96
2019-05-01T04:44:46.405Z,11.91
2019-05-01T04:45:46.425Z,11.99
2019-05-01T04:46:46.443Z,12.02
2019-05-01T04:48:01.134Z,12.05
2019-05-01T04:48:46.480Z,12.07
2019-05-01T04:49:46.503Z,12.02
2019-05-01T04:50:46.521Z,11.96
2019-05-01T04:51:46.543Z,11.88
2019-05-01T04:52:46.562Z,11.91
2019-05-01T04:53:46.578Z,11.95
2019-05-01T04:55:01.265Z,11.96
2019-05-01T04:55:46.617Z,11.86
2019-05-01T04:56:46.632Z,11.8
2019-05-01T04:57:46.658Z,11.73
2019-05-01T04:58:46.692Z,11.73
2019-05-01T04:59:46.800Z,11.73
2019-05-01T05:01:01.376Z,11.65
2019-05-01T05:01:46.835Z,11.72
2019-05-01T05:02:46.755Z,11.8
2019-05-01T05:04:01.438Z,11.67
2019-05-01T05:04:46.804Z,11.72
2019-05-01T05:05:46.831Z,11.75
2019-05-01T05:07:46.848Z,11.8
2019-05-01T05:08:46.870Z,11.86
2019-05-01T05:09:46.899Z,11.96
2019-05-01T05:10:46.910Z,12.07
2019-05-01T05:11:46.927Z,12.05
2019-05-01T05:12:46.973Z,12.01
2019-05-01T05:13:49.414Z,11.99
2019-05-01T05:14:46.990Z,12.01
2019-05-01T05:15:47.016Z,12.01
2019-05-01T05:16:47.027Z,12.07
2019-05-01T05:17:47.070Z,11.96
2019-05-01T05:18:47.069Z,11.96
2019-05-01T05:20:01.753Z,11.96
2019-05-01T05:20:47.112Z,11.83
2019-05-01T05:21:47.130Z,11.83
2019-05-01T05:22:47.149Z,11.86
2019-05-01T05:23:47.168Z,11.82
2019-05-01T05:24:47.188Z,11.73
2019-05-01T05:25:47.207Z,11.75
2019-05-01T05:26:47.237Z,11.69
2019-05-01T05:27:47.248Z,11.69
2019-05-01T05:31:01.973Z,11.79
2019-05-01T05:31:47.327Z,11.95
2019-05-01T05:32:47.351Z,12.01
2019-05-01T05:33:47.371Z,12.1
2019-05-01T05:35:02.054Z,12.42
2019-05-01T05:35:47.409Z,12.47
2019-05-01T05:36:47.433Z,12.47
2019-05-01T05:37:47.513Z,12.47
2019-05-01T05:38:47.473Z,12.46
2019-05-01T05:39:47.492Z,12.47
2019-05-01T05:40:47.517Z,12.49
2019-05-01T05:41:47.530Z,12.59
2019-05-01T05:42:47.554Z,12.65
2019-05-01T05:43:47.574Z,13.07
2019-05-01T05:44:47.592Z,13.11
2019-05-01T05:45:47.614Z,13.1
2019-05-01T05:46:47.636Z,13.2
2019-05-01T05:47:47.658Z,13.17
2019-05-01T05:48:47.678Z,13.33
2019-05-01T05:49:47.700Z,13.39
2019-05-01T05:50:47.721Z,13.55
2019-05-01T05:51:47.747Z,13.6
2019-05-01T05:52:47.512Z,13.89
2019-05-01T05:53:47.785Z,14.4
2019-05-01T05:54:47.807Z,14.64
2019-05-01T05:55:47.831Z,15.07
2019-05-01T05:56:47.868Z,15.67
2019-05-01T05:57:47.919Z,15.87
2019-05-01T05:58:47.661Z,16.11
2019-05-01T05:59:47.919Z,15.8
2019-05-01T06:00:47.946Z,14.89
2019-05-01T06:01:47.973Z,14.5
2019-05-01T06:02:48.000Z,14.29
2019-05-01T06:04:02.677Z,14.17
2019-05-01T06:04:48.037Z,13.99
2019-05-01T06:05:48.060Z,13.81
2019-05-01T06:07:02.749Z,13.59
2019-05-01T06:07:48.111Z,13.54
2019-05-01T06:08:48.131Z,13.54
2019-05-01T06:10:48.177Z,13.78
2019-05-01T06:11:48.199Z,13.75
2019-05-01T06:13:06.509Z,13.57
2019-05-01T06:13:48.242Z,13.3
2019-05-01T06:15:51.289Z,13.3
2019-05-01T06:17:48.332Z,13.11
2019-05-01T06:18:48.354Z,13.01
2019-05-01T06:19:52.215Z,12.95
2019-05-01T06:21:03.934Z,13.03
2019-05-01T06:21:48.420Z,13.11
2019-05-01T06:23:03.114Z,12.96
2019-05-01T06:23:52.599Z,12.86
2019-05-01T06:24:48.491Z,12.78
2019-05-01T06:26:48.537Z,12.85
2019-05-01T06:27:51.912Z,12.77
2019-05-01T06:28:48.576Z,12.82
2019-05-01T06:29:48.597Z,12.82
2019-05-01T06:30:51.785Z,12.83
2019-05-01T06:31:48.638Z,12.72
2019-05-01T06:32:48.664Z,12.86
2019-05-01T06:34:48.704Z,13.17
2019-05-01T06:35:48.728Z,13.2
2019-05-01T06:36:53.759Z,13.36
2019-05-01T06:37:48.767Z,13.36
2019-05-01T06:39:06.742Z,13.45
2019-05-01T06:39:52.925Z,13.52
2019-05-01T06:40:52.938Z,13.87
2019-05-01T06:41:48.872Z,14
2019-05-01T06:42:52.582Z,14.06
2019-05-01T06:43:48.897Z,14.04
2019-05-01T06:44:49.195Z,13.85
2019-05-01T06:45:54.240Z,13.66
2019-05-01T06:46:48.961Z,13.6
2019-05-01T06:49:06.553Z,13.55
2019-05-01T06:49:49.031Z,13.57
2019-05-01T06:51:03.714Z,13.6
2019-05-01T06:51:55.761Z,13.45
2019-05-01T06:53:49.113Z,13.04
2019-05-01T06:55:03.801Z,13.04
2019-05-01T06:55:51.382Z,13.08
2019-05-01T06:56:49.190Z,13.01
2019-05-01T06:57:50.472Z,13.05
2019-05-01T06:58:57.315Z,13.04
2019-05-01T06:59:49.255Z,13.01
2019-05-01T07:00:49.367Z,13.05
2019-05-01T07:01:53.027Z,13.05
2019-05-01T07:02:49.308Z,13
2019-05-01T07:04:06.284Z,13.12
2019-05-01T07:05:56.831Z,13.17
2019-05-01T07:06:49.393Z,13.03
2019-05-01T07:07:55.858Z,12.96
2019-05-01T07:08:49.438Z,13.08
2019-05-01T07:10:04.124Z,12.87
2019-05-01T07:10:50.711Z,12.85
2019-05-01T07:11:55.323Z,12.85
2019-05-01T07:12:49.525Z,12.82
2019-05-01T07:13:49.545Z,12.9
2019-05-01T07:14:55.191Z,12.83
2019-05-01T07:15:49.638Z,12.83
2019-05-01T07:16:49.616Z,12.77
2019-05-01T07:17:52.729Z,12.77
2019-05-01T07:20:55.917Z,12.79
2019-05-01T07:21:49.721Z,12.87
2019-05-01T07:22:49.738Z,12.87
2019-05-01T07:23:54.844Z,12.86
2019-05-01T07:24:51.551Z,12.77
2019-05-01T07:25:49.798Z,12.68
2019-05-01T07:26:52.553Z,12.56
2019-05-01T07:27:53.812Z,12.47
2019-05-01T07:28:49.861Z,12.45
2019-05-01T07:31:49.922Z,12.64
2019-05-01T07:32:50.050Z,12.7
2019-05-01T07:33:53.854Z,12.75
2019-05-01T07:34:51.430Z,12.67
2019-05-01T07:35:50.009Z,12.89
2019-05-01T07:37:50.047Z,13.17
2019-05-01T07:38:50.068Z,13.39
2019-05-01T07:39:54.831Z,13.57
2019-05-01T07:40:50.113Z,13.66
2019-05-01T07:42:07.736Z,13.73
2019-05-01T07:42:53.129Z,13.71
2019-05-01T07:43:50.179Z,13.81
2019-05-01T07:44:50.201Z,13.6
2019-05-01T07:45:50.237Z,13.66
2019-05-01T07:46:56.658Z,13.79
2019-05-01T07:47:50.261Z,13.84
2019-05-01T07:48:50.384Z,13.96
2019-05-01T07:51:50.347Z,13.55
2019-05-01T07:52:54.926Z,13.7
2019-05-01T07:53:50.390Z,13.6
2019-05-01T07:54:52.056Z,13.64
2019-05-01T07:55:55.157Z,13.67
2019-05-01T07:56:50.460Z,13.63
2019-05-01T07:58:05.138Z,13.64
2019-05-01T07:58:54.526Z,13.79
2019-05-01T07:59:50.516Z,13.81
2019-05-01T08:00:50.558Z,13.75
2019-05-01T08:01:56.950Z,13.62
2019-05-01T08:02:50.579Z,13.66
2019-05-01T08:03:50.604Z,13.6
2019-05-01T08:04:50.629Z,13.91
2019-05-01T08:05:51.665Z,14.04
2019-05-01T08:06:56.918Z,14.33
2019-05-01T08:07:50.687Z,14.54
2019-05-01T08:08:50.713Z,14.91
2019-05-01T08:09:54.970Z,15.2
2019-05-01T08:10:50.753Z,15.49
2019-05-01T08:11:50.782Z,15.46
2019-05-01T08:12:50.557Z,15.54
2019-05-01T08:14:11.881Z,16.05
2019-05-01T08:14:55.089Z,16.31
2019-05-01T08:15:50.866Z,16.49
2019-05-01T08:16:50.987Z,17.06
2019-05-01T08:17:56.600Z,17.72
2019-05-01T08:18:50.945Z,18.29
2019-05-01T08:19:50.956Z,18.65
2019-05-01T08:21:51.008Z,19.18
2019-05-01T08:22:51.029Z,19.14
2019-05-01T08:23:52.163Z,19.21
2019-05-01T08:24:53.733Z,19.25
2019-05-01T08:25:51.102Z,19.21
2019-05-01T08:26:50.892Z,18.82
2019-05-01T08:27:56.129Z,18.54
2019-05-01T08:28:51.172Z,18.41
2019-05-01T08:30:05.862Z,18.26
2019-05-01T08:30:55.260Z,18.03
2019-05-01T08:31:51.247Z,17.77
2019-05-01T08:32:51.272Z,18.08
2019-05-01T08:33:54.760Z,17.74
2019-05-01T08:35:00.365Z,16.7
2019-05-01T08:36:52.028Z,16.88
2019-05-01T08:39:09.051Z,17.11
2019-05-01T08:40:06.110Z,17.11
2019-05-01T08:40:58.073Z,17.23
2019-05-01T08:41:51.491Z,17.26
2019-05-01T08:42:51.515Z,17.28
2019-05-01T08:43:56.415Z,17.41
2019-05-01T08:45:07.633Z,17.66
2019-05-01T08:45:51.592Z,17.86
2019-05-01T08:46:55.706Z,17.95
2019-05-01T08:47:51.637Z,17.7
2019-05-01T08:48:51.663Z,17.77
2019-05-01T08:49:55.423Z,17.84
2019-05-01T08:50:54.474Z,18.02
2019-05-01T08:52:53.393Z,18.11
2019-05-01T08:53:57.721Z,18.12
2019-05-01T08:55:09.202Z,18.03
2019-05-01T08:55:51.952Z,17.87
2019-05-01T08:57:51.931Z,17.71
2019-05-01T08:58:54.451Z,17.54
2019-05-01T08:59:55.603Z,17.64
2019-05-01T09:00:51.956Z,17.78
2019-05-01T09:02:11.620Z,17.78
2019-05-01T09:02:52.009Z,17.82
2019-05-01T09:04:12.868Z,18.12
2019-05-01T09:05:07.074Z,18.41
2019-05-01T09:05:57.287Z,18.55
2019-05-01T09:06:51.852Z,18.6
2019-05-01T09:07:58.539Z,18.78
2019-05-01T09:08:52.149Z,18.81
2019-05-01T09:09:52.397Z,18.75
2019-05-01T09:11:00.054Z,18.85
2019-05-01T09:11:54.458Z,18.66
2019-05-01T09:12:54.571Z,18.36
2019-05-01T09:13:54.563Z,18.11
2019-05-01T09:14:53.749Z,18.2
2019-05-01T09:15:53.162Z,17.96
2019-05-01T09:17:07.008Z,18.03
2019-05-01T09:17:52.368Z,18.29
2019-05-01T09:18:52.643Z,18.41
2019-05-01T09:20:07.091Z,18.42
2019-05-01T09:20:52.445Z,18.69
2019-05-01T09:21:52.216Z,19.13
2019-05-01T09:22:52.496Z,18.98
2019-05-01T09:24:11.219Z,18.72
2019-05-01T09:26:54.864Z,18.51
2019-05-01T09:27:52.619Z,18.51
2019-05-01T09:28:52.641Z,18.51
2019-05-01T09:29:56.617Z,18.12
2019-05-01T09:31:07.349Z,17.9
2019-05-01T09:31:52.463Z,17.79
2019-05-01T09:33:07.399Z,17.99
2019-05-01T09:33:52.760Z,18.11
2019-05-01T09:34:52.780Z,18.17
2019-05-01T09:35:52.811Z,18.07
2019-05-01T09:36:52.854Z,18.1
2019-05-01T09:37:52.855Z,18.29
2019-05-01T09:38:54.873Z,18.17
2019-05-01T09:39:52.910Z,18.37
2019-05-01T09:41:53.694Z,18.51
2019-05-01T09:42:59.293Z,18.17
2019-05-01T09:43:52.997Z,18.15
2019-05-01T09:44:53.027Z,18.03
2019-05-01T09:45:53.045Z,17.82
2019-05-01T09:46:52.829Z,18.27
2019-05-01T09:47:53.096Z,18.54
2019-05-01T09:49:07.787Z,18.98
2019-05-01T09:49:56.690Z,18.9
2019-05-01T09:50:53.170Z,19.02
2019-05-01T09:51:54.105Z,19.13
2019-05-01T09:52:55.025Z,19.33
2019-05-01T09:53:53.238Z,19.39
2019-05-01T09:54:53.263Z,20.01
2019-05-01T09:55:53.301Z,20.28
2019-05-01T09:56:53.323Z,19.81
2019-05-01T09:57:53.345Z,20.02
2019-05-01T09:58:53.362Z,19.8
2019-05-01T10:00:57.386Z,20.38
2019-05-01T10:02:09.114Z,20.85
2019-05-01T10:02:54.707Z,20.94
2019-05-01T10:03:57.123Z,21.09
2019-05-01T10:05:09.293Z,21.09
2019-05-01T10:05:53.532Z,21.04
2019-05-01T10:07:53.583Z,20.73
2019-05-01T10:08:53.611Z,21.16
2019-05-01T10:09:57.083Z,20.94
2019-05-01T10:10:53.668Z,21.37
2019-05-01T10:11:53.684Z,21.71
2019-05-01T10:13:08.376Z,22.36
2019-05-01T10:13:58.340Z,22.37
2019-05-01T10:14:53.755Z,22.33
2019-05-01T10:15:53.781Z,22.12
2019-05-01T10:17:08.472Z,22.25
2019-05-01T10:17:53.835Z,22.17
2019-05-01T10:18:53.857Z,22.39
2019-05-01T10:20:08.599Z,22.36
2019-05-01T10:20:53.912Z,22.21
2019-05-01T10:21:53.685Z,21.53
2019-05-01T10:22:53.961Z,20.84
2019-05-01T10:23:56.807Z,20.21
2019-05-01T10:24:54.012Z,20.06
2019-05-01T10:26:09.270Z,19.99
2019-05-01T10:27:00.062Z,19.99
2019-05-01T10:27:55.492Z,19.33
2019-05-01T10:28:55.017Z,19.33
2019-05-01T10:29:56.806Z,19.07
2019-05-01T10:31:11.781Z,19.32
2019-05-01T10:31:53.944Z,19.47
2019-05-01T10:33:00.653Z,19.68
2019-05-01T10:33:54.245Z,19.8
2019-05-01T10:34:56.636Z,20.11
2019-05-01T10:35:54.295Z,20.26
2019-05-01T10:36:57.157Z,20.24
2019-05-01T10:37:54.346Z,20.38
2019-05-01T10:38:54.381Z,20.5
2019-05-01T10:39:58.198Z,20.32
2019-05-01T10:40:54.421Z,20.39
2019-05-01T10:41:54.580Z,20.36
2019-05-01T10:42:54.476Z,20.28
2019-05-01T10:44:09.168Z,20.23
2019-05-01T10:44:54.525Z,19.99
2019-05-01T10:45:54.550Z,19.84
2019-05-01T10:46:54.324Z,20.06
2019-05-01T10:48:09.267Z,19.74
2019-05-01T10:48:57.100Z,19.65
2019-05-01T10:49:54.649Z,19.66
2019-05-01T10:50:54.673Z,19.74
2019-05-01T10:52:16.672Z,19.59
2019-05-01T10:52:54.723Z,19.74
2019-05-01T10:53:54.759Z,19.77
2019-05-01T10:54:54.794Z,19.73
2019-05-01T10:55:54.580Z,19.65
2019-05-01T10:56:58.770Z,19.59
2019-05-01T10:57:54.847Z,19.69
2019-05-01T10:58:54.872Z,19.55
2019-05-01T10:59:54.901Z,19.63
2019-05-01T11:00:54.928Z,19.77
2019-05-01T11:01:54.949Z,20.02
2019-05-01T11:02:54.970Z,19.74
2019-05-01T11:04:09.662Z,20.11
2019-05-01T11:04:55.025Z,19.76
2019-05-01T11:06:15.686Z,19.63
2019-05-01T11:06:55.078Z,19.74
2019-05-01T11:08:09.761Z,19.36
2019-05-01T11:08:55.121Z,19.28
2019-05-01T11:09:55.143Z,19.4
2019-05-01T11:10:55.171Z,19.39
2019-05-01T11:11:55.192Z,19.51
2019-05-01T11:13:09.636Z,19.47
2019-05-01T11:14:55.267Z,19.77
2019-05-01T11:15:55.289Z,19.81
2019-05-01T11:16:55.313Z,20.05
2019-05-01T11:18:55.406Z,20.13
2019-05-01T11:19:55.395Z,20.13
2019-05-01T11:21:10.082Z,20.39
2019-05-01T11:21:55.192Z,20.42
2019-05-01T11:22:55.464Z,20.58
2019-05-01T11:24:10.164Z,20.76
2019-05-01T11:24:55.515Z,20.33
2019-05-01T11:25:55.536Z,19.95
2019-05-01T11:26:55.562Z,19.84
2019-05-01T11:27:55.582Z,19.83
2019-05-01T11:28:55.611Z,19.63
2019-05-01T11:29:55.634Z,19.32
2019-05-01T11:30:55.664Z,19.32
2019-05-01T11:31:55.681Z,19.39
2019-05-01T11:32:55.705Z,19.23
2019-05-01T11:34:55.761Z,19.4
2019-05-01T11:36:02.891Z,19.63
2019-05-01T11:36:55.804Z,19.66
2019-05-01T11:37:55.830Z,20.03
2019-05-01T11:38:55.850Z,19.98
2019-05-01T11:40:10.540Z,20.11
2019-05-01T11:40:55.899Z,20.36
2019-05-01T11:41:55.925Z,20.38
2019-05-01T11:42:55.949Z,20.29
2019-05-01T11:43:55.973Z,20.13
2019-05-01T11:44:55.998Z,20.08
2019-05-01T11:45:56.075Z,20.05
2019-05-01T11:46:56.046Z,20.24
2019-05-01T11:47:56.172Z,20.42
2019-05-01T11:48:56.097Z,20.14
2019-05-01T11:49:56.119Z,20.1
2019-05-01T11:50:56.147Z,20.13
2019-05-01T11:51:55.918Z,20.16
2019-05-01T11:52:56.195Z,19.99
2019-05-01T11:53:56.218Z,19.54
2019-05-01T11:55:56.265Z,19.71
2019-05-01T11:58:10.987Z,20.23
2019-05-01T11:58:56.355Z,19.96
2019-05-01T11:59:56.362Z,19.96
2019-05-01T12:00:56.386Z,20.05
2019-05-01T12:01:56.169Z,19.76
2019-05-01T12:03:56.482Z,19.81
2019-05-01T12:05:56.608Z,20.18
2019-05-01T12:06:56.533Z,20.26
2019-05-01T12:08:11.220Z,20.35
2019-05-01T12:08:56.579Z,20.48
2019-05-01T12:09:56.608Z,20.59
2019-05-01T12:10:56.632Z,20.79
2019-05-01T12:11:56.677Z,20.72
2019-05-01T12:12:56.677Z,20.58
2019-05-01T12:13:56.699Z,20.72
2019-05-01T12:15:56.747Z,20.72
2019-05-01T12:16:56.777Z,20.85
2019-05-01T12:19:56.854Z,20.5
2019-05-01T12:20:56.872Z,20.54
2019-05-01T12:21:56.892Z,20.1
2019-05-01T12:22:56.916Z,19.74
2019-05-01T12:23:56.949Z,19.61
2019-05-01T12:24:56.972Z,19.62
2019-05-01T12:25:56.990Z,20.03
2019-05-01T12:27:11.681Z,19.87
2019-05-01T12:27:57.084Z,19.83
2019-05-01T12:28:57.067Z,19.59
2019-05-01T12:31:57.160Z,19.77
2019-05-01T12:32:57.168Z,20.01
2019-05-01T12:34:57.230Z,19.69
2019-05-01T12:35:57.232Z,19.78
2019-05-01T12:36:57.008Z,19.83
2019-05-01T12:38:00.213Z,19.73
2019-05-01T12:38:57.303Z,19.81
2019-05-01T12:39:57.331Z,19.56
2019-05-01T12:41:12.017Z,19.51
2019-05-01T12:43:14.748Z,19.32
2019-05-01T12:43:57.425Z,19.39
2019-05-01T12:44:57.452Z,19.56
2019-05-01T12:45:57.481Z,19.56
2019-05-01T12:46:57.495Z,19.4
2019-05-01T12:47:57.538Z,19.65
2019-05-01T12:49:57.569Z,20.14
2019-05-01T12:53:12.308Z,19.5
2019-05-01T12:53:57.667Z,19.62
2019-05-01T12:55:12.355Z,19.43
2019-05-01T12:55:57.724Z,19.56
2019-05-01T12:56:57.740Z,19.33
2019-05-01T12:57:57.762Z,19.13
2019-05-01T12:59:12.447Z,19.02
2019-05-01T13:00:10.754Z,19.18
2019-05-01T13:00:57.841Z,19.32
2019-05-01T13:01:57.865Z,19.18
2019-05-01T13:02:57.884Z,19.18
2019-05-01T13:03:57.903Z,19
2019-05-01T13:05:57.708Z,19.06
2019-05-01T13:07:58.000Z,18.9
2019-05-01T13:08:58.026Z,18.87
2019-05-01T13:10:58.070Z,18.87
2019-05-01T13:12:12.760Z,18.94
2019-05-01T13:12:58.119Z,19.07
2019-05-01T13:13:58.148Z,19.11
2019-05-01T13:15:12.830Z,19.28
2019-05-01T13:15:58.200Z,19.19
2019-05-01T13:16:58.214Z,18.94
2019-05-01T13:17:58.239Z,18.91
2019-05-01T13:18:58.261Z,18.9
2019-05-01T13:19:58.291Z,19.02
2019-05-01T13:20:58.312Z,18.81
2019-05-01T13:21:58.332Z,18.84
2019-05-01T13:22:58.362Z,18.72
2019-05-01T13:23:58.489Z,18.63
2019-05-01T13:24:58.404Z,18.67
2019-05-01T13:25:58.436Z,18.7
2019-05-01T13:26:58.454Z,18.82
2019-05-01T13:27:58.478Z,18.87
2019-05-01T13:28:58.498Z,18.88
2019-05-01T13:30:13.188Z,18.87
2019-05-01T13:30:58.548Z,18.75
2019-05-01T13:32:58.594Z,19.06
2019-05-01T13:33:58.615Z,19.16
2019-05-01T13:34:58.652Z,19.14
2019-05-01T13:35:58.664Z,19.21
2019-05-01T13:37:07.895Z,19.39
2019-05-01T13:37:58.715Z,19.32
2019-05-01T13:39:58.758Z,19.14
2019-05-01T13:40:58.784Z,19.19
2019-05-01T13:41:58.811Z,19.06
2019-05-01T13:42:58.830Z,19.14
2019-05-01T13:43:58.852Z,19.16
2019-05-01T13:44:58.879Z,19.13
2019-05-01T13:45:58.907Z,19.31
2019-05-01T13:47:13.600Z,19.5
2019-05-01T13:47:59.590Z,19.68
2019-05-01T13:48:58.972Z,19.54
2019-05-01T13:49:59.045Z,19.58
2019-05-01T13:50:59.018Z,19.56
2019-05-01T13:51:59.045Z,19.58
2019-05-01T13:52:59.066Z,19.37
2019-05-01T13:53:59.090Z,18.95
2019-05-01T13:55:59.237Z,18.73
2019-05-01T13:56:59.184Z,18.55
2019-05-01T13:57:59.184Z,18.65